sensor_id;sensor_type;location;lat;lon;timestamp;P1;durP1;ratioP1;P2;durP2;ratioP2
52015;SDS011;38032;53.326;6.472;2023-12-28T00:00:06;4.82;;;3.55;;
52015;SDS011;38032;53.326;6.472;2023-12-28T00:02:32;7.00;;;4.07;;
52015;SDS011;38032;53.326;6.472;2023-12-28T00:04:58;5.53;;;3.35;;
52015;SDS011;38032;53.326;6.472;2023-12-28T00:07:24;5.35;;;3.38;;
52015;SDS011;38032;53.326;6.472;2023-12-28T00:09:50;6.38;;;3.38;;
52015;SDS011;38032;53.326;6.472;2023-12-28T00:12:15;6.78;;;3.88;;
52015;SDS011;38032;53.326;6.472;2023-12-28T00:14:41;6.30;;;3.80;;
52015;SDS011;38032;53.326;6.472;2023-12-28T00:17:07;7.80;;;4.00;;
52015;SDS011;38032;53.326;6.472;2023-12-28T00:19:33;4.88;;;3.80;;
52015;SDS011;38032;53.326;6.472;2023-12-28T00:21:59;5.13;;;3.50;;
52015;SDS011;38032;53.326;6.472;2023-12-28T00:24:25;5.78;;;3.35;;
52015;SDS011;38032;53.326;6.472;2023-12-28T00:26:50;8.35;;;4.15;;
52015;SDS011;38032;53.326;6.472;2023-12-28T00:29:16;6.88;;;3.85;;
52015;SDS011;38032;53.326;6.472;2023-12-28T00:31:42;8.52;;;3.85;;
52015;SDS011;38032;53.326;6.472;2023-12-28T00:34:26;5.57;;;3.70;;
52015;SDS011;38032;53.326;6.472;2023-12-28T00:36:52;5.72;;;3.70;;
52015;SDS011;38032;53.326;6.472;2023-12-28T00:39:18;9.32;;;3.63;;
52015;SDS011;38032;53.326;6.472;2023-12-28T00:41:43;3.85;;;3.00;;
52015;SDS011;38032;53.326;6.472;2023-12-28T00:44:09;9.25;;;3.60;;
52015;SDS011;38032;53.326;6.472;2023-12-28T00:46:35;6.75;;;3.47;;
52015;SDS011;38032;53.326;6.472;2023-12-28T00:49:01;7.47;;;3.53;;
52015;SDS011;38032;53.326;6.472;2023-12-28T00:51:27;7.00;;;3.72;;
52015;SDS011;38032;53.326;6.472;2023-12-28T00:53:53;5.85;;;3.13;;
52015;SDS011;38032;53.326;6.472;2023-12-28T00:56:18;6.78;;;3.25;;
52015;SDS011;38032;53.326;6.472;2023-12-28T00:58:46;7.40;;;3.63;;
52015;SDS011;38032;53.326;6.472;2023-12-28T01:01:12;5.50;;;3.28;;
52015;SDS011;38032;53.326;6.472;2023-12-28T01:03:38;9.95;;;3.50;;
52015;SDS011;38032;53.326;6.472;2023-12-28T01:06:04;7.53;;;3.08;;
52015;SDS011;38032;53.326;6.472;2023-12-28T01:08:31;4.97;;;2.85;;
52015;SDS011;38032;53.326;6.472;2023-12-28T01:10:59;7.20;;;3.35;;
52015;SDS011;38032;53.326;6.472;2023-12-28T01:13:25;8.82;;;3.08;;
52015;SDS011;38032;53.326;6.472;2023-12-28T01:15:52;8.55;;;3.30;;
52015;SDS011;38032;53.326;6.472;2023-12-28T01:18:18;6.10;;;2.75;;
52015;SDS011;38032;53.326;6.472;2023-12-28T01:20:45;9.38;;;3.15;;
52015;SDS011;38032;53.326;6.472;2023-12-28T01:23:11;10.88;;;3.30;;
52015;SDS011;38032;53.326;6.472;2023-12-28T01:25:37;8.10;;;2.83;;
52015;SDS011;38032;53.326;6.472;2023-12-28T01:28:03;7.32;;;2.83;;
52015;SDS011;38032;53.326;6.472;2023-12-28T01:30:29;8.68;;;3.28;;
52015;SDS011;38032;53.326;6.472;2023-12-28T01:32:55;8.52;;;2.95;;
52015;SDS011;38032;53.326;6.472;2023-12-28T01:35:21;14.32;;;3.28;;
52015;SDS011;38032;53.326;6.472;2023-12-28T01:37:47;9.63;;;2.85;;
52015;SDS011;38032;53.326;6.472;2023-12-28T01:40:14;9.23;;;3.15;;
52015;SDS011;38032;53.326;6.472;2023-12-28T01:42:42;9.45;;;3.38;;
52015;SDS011;38032;53.326;6.472;2023-12-28T01:45:07;9.23;;;3.03;;
52015;SDS011;38032;53.326;6.472;2023-12-28T01:47:33;10.07;;;2.92;;
52015;SDS011;38032;53.326;6.472;2023-12-28T01:49:59;10.48;;;3.40;;
52015;SDS011;38032;53.326;6.472;2023-12-28T01:52:26;16.63;;;3.63;;
52015;SDS011;38032;53.326;6.472;2023-12-28T01:54:53;10.50;;;3.40;;
52015;SDS011;38032;53.326;6.472;2023-12-28T01:57:20;11.25;;;3.55;;
52015;SDS011;38032;53.326;6.472;2023-12-28T01:59:46;9.80;;;3.47;;
52015;SDS011;38032;53.326;6.472;2023-12-28T02:02:12;13.68;;;3.38;;
52015;SDS011;38032;53.326;6.472;2023-12-28T02:04:39;9.90;;;3.05;;
52015;SDS011;38032;53.326;6.472;2023-12-28T02:07:05;12.75;;;3.60;;
52015;SDS011;38032;53.326;6.472;2023-12-28T02:09:31;10.60;;;2.83;;
52015;SDS011;38032;53.326;6.472;2023-12-28T02:11:57;12.95;;;3.10;;
52015;SDS011;38032;53.326;6.472;2023-12-28T02:14:23;11.43;;;3.00;;
52015;SDS011;38032;53.326;6.472;2023-12-28T02:16:51;14.57;;;3.30;;
52015;SDS011;38032;53.326;6.472;2023-12-28T02:19:31;15.35;;;3.35;;
52015;SDS011;38032;53.326;6.472;2023-12-28T02:22:05;14.13;;;3.83;;
52015;SDS011;38032;53.326;6.472;2023-12-28T02:24:32;8.93;;;3.20;;
52015;SDS011;38032;53.326;6.472;2023-12-28T02:27:14;10.98;;;3.38;;
52015;SDS011;38032;53.326;6.472;2023-12-28T02:29:40;9.05;;;3.10;;
52015;SDS011;38032;53.326;6.472;2023-12-28T02:32:06;11.88;;;3.88;;
52015;SDS011;38032;53.326;6.472;2023-12-28T02:34:36;14.10;;;3.92;;
52015;SDS011;38032;53.326;6.472;2023-12-28T02:37:05;11.88;;;3.70;;
52015;SDS011;38032;53.326;6.472;2023-12-28T02:39:31;14.13;;;4.03;;
52015;SDS011;38032;53.326;6.472;2023-12-28T02:41:58;17.83;;;3.70;;
52015;SDS011;38032;53.326;6.472;2023-12-28T02:44:24;13.60;;;3.65;;
52015;SDS011;38032;53.326;6.472;2023-12-28T02:46:50;9.27;;;2.88;;
52015;SDS011;38032;53.326;6.472;2023-12-28T02:49:16;11.68;;;3.55;;
52015;SDS011;38032;53.326;6.472;2023-12-28T02:51:42;12.43;;;3.15;;
52015;SDS011;38032;53.326;6.472;2023-12-28T02:54:07;11.32;;;3.72;;
52015;SDS011;38032;53.326;6.472;2023-12-28T02:56:33;8.73;;;3.00;;
52015;SDS011;38032;53.326;6.472;2023-12-28T02:58:59;11.27;;;3.75;;
52015;SDS011;38032;53.326;6.472;2023-12-28T03:01:25;13.38;;;3.65;;
52015;SDS011;38032;53.326;6.472;2023-12-28T03:03:51;10.98;;;3.20;;
52015;SDS011;38032;53.326;6.472;2023-12-28T03:06:17;10.07;;;3.08;;
52015;SDS011;38032;53.326;6.472;2023-12-28T03:08:42;8.10;;;3.15;;
52015;SDS011;38032;53.326;6.472;2023-12-28T03:11:08;10.93;;;3.47;;
52015;SDS011;38032;53.326;6.472;2023-12-28T03:13:34;8.18;;;3.60;;
52015;SDS011;38032;53.326;6.472;2023-12-28T03:16:00;7.82;;;3.20;;
52015;SDS011;38032;53.326;6.472;2023-12-28T03:18:26;7.55;;;3.17;;
52015;SDS011;38032;53.326;6.472;2023-12-28T03:20:51;11.43;;;3.30;;
52015;SDS011;38032;53.326;6.472;2023-12-28T03:23:17;6.57;;;2.97;;
52015;SDS011;38032;53.326;6.472;2023-12-28T03:25:43;8.77;;;2.92;;
52015;SDS011;38032;53.326;6.472;2023-12-28T03:28:09;8.95;;;2.83;;
52015;SDS011;38032;53.326;6.472;2023-12-28T03:30:34;9.75;;;3.53;;
52015;SDS011;38032;53.326;6.472;2023-12-28T03:33:00;12.02;;;3.20;;
52015;SDS011;38032;53.326;6.472;2023-12-28T03:35:26;9.43;;;3.00;;
52015;SDS011;38032;53.326;6.472;2023-12-28T03:37:52;7.68;;;2.72;;
52015;SDS011;38032;53.326;6.472;2023-12-28T03:40:18;12.10;;;3.63;;
52015;SDS011;38032;53.326;6.472;2023-12-28T03:42:43;12.10;;;3.55;;
52015;SDS011;38032;53.326;6.472;2023-12-28T03:45:09;8.50;;;2.92;;
52015;SDS011;38032;53.326;6.472;2023-12-28T03:47:37;12.82;;;3.08;;
52015;SDS011;38032;53.326;6.472;2023-12-28T03:50:03;7.75;;;3.30;;
52015;SDS011;38032;53.326;6.472;2023-12-28T03:52:29;10.73;;;3.50;;
52015;SDS011;38032;53.326;6.472;2023-12-28T03:54:55;7.70;;;2.65;;
52015;SDS011;38032;53.326;6.472;2023-12-28T03:57:21;11.43;;;2.97;;
52015;SDS011;38032;53.326;6.472;2023-12-28T03:59:47;7.90;;;2.80;;
52015;SDS011;38032;53.326;6.472;2023-12-28T04:02:13;11.95;;;3.25;;
52015;SDS011;38032;53.326;6.472;2023-12-28T04:04:39;9.68;;;2.97;;
52015;SDS011;38032;53.326;6.472;2023-12-28T04:07:04;7.40;;;2.70;;
52015;SDS011;38032;53.326;6.472;2023-12-28T04:09:32;8.98;;;3.10;;
52015;SDS011;38032;53.326;6.472;2023-12-28T04:11:58;9.30;;;2.88;;
52015;SDS011;38032;53.326;6.472;2023-12-28T04:14:24;7.78;;;2.72;;
52015;SDS011;38032;53.326;6.472;2023-12-28T04:16:50;11.77;;;2.95;;
52015;SDS011;38032;53.326;6.472;2023-12-28T04:19:16;10.27;;;3.20;;
52015;SDS011;38032;53.326;6.472;2023-12-28T04:21:43;10.27;;;3.50;;
52015;SDS011;38032;53.326;6.472;2023-12-28T04:24:09;9.13;;;3.08;;
52015;SDS011;38032;53.326;6.472;2023-12-28T04:26:35;9.77;;;2.63;;
52015;SDS011;38032;53.326;6.472;2023-12-28T04:29:01;8.88;;;2.90;;
52015;SDS011;38032;53.326;6.472;2023-12-28T04:31:27;9.05;;;3.15;;
52015;SDS011;38032;53.326;6.472;2023-12-28T04:33:53;8.02;;;3.03;;
52015;SDS011;38032;53.326;6.472;2023-12-28T04:36:19;11.73;;;3.00;;
52015;SDS011;38032;53.326;6.472;2023-12-28T04:38:45;12.93;;;3.17;;
52015;SDS011;38032;53.326;6.472;2023-12-28T04:41:11;6.93;;;2.70;;
52015;SDS011;38032;53.326;6.472;2023-12-28T04:43:37;11.70;;;3.45;;
52015;SDS011;38032;53.326;6.472;2023-12-28T04:46:04;8.55;;;2.75;;
52015;SDS011;38032;53.326;6.472;2023-12-28T04:48:30;9.43;;;3.08;;
52015;SDS011;38032;53.326;6.472;2023-12-28T04:50:56;9.07;;;2.88;;
52015;SDS011;38032;53.326;6.472;2023-12-28T04:53:22;14.25;;;3.58;;
52015;SDS011;38032;53.326;6.472;2023-12-28T04:55:48;10.07;;;2.90;;
52015;SDS011;38032;53.326;6.472;2023-12-28T04:58:14;6.95;;;2.40;;
52015;SDS011;38032;53.326;6.472;2023-12-28T05:00:40;9.82;;;3.15;;
52015;SDS011;38032;53.326;6.472;2023-12-28T05:03:06;9.40;;;2.78;;
52015;SDS011;38032;53.326;6.472;2023-12-28T05:05:32;10.52;;;2.80;;
52015;SDS011;38032;53.326;6.472;2023-12-28T05:07:58;8.65;;;2.90;;
52015;SDS011;38032;53.326;6.472;2023-12-28T05:10:24;12.25;;;3.33;;
52015;SDS011;38032;53.326;6.472;2023-12-28T05:12:49;8.90;;;3.45;;
52015;SDS011;38032;53.326;6.472;2023-12-28T05:15:15;10.27;;;2.65;;
52015;SDS011;38032;53.326;6.472;2023-12-28T05:17:43;8.05;;;3.28;;
52015;SDS011;38032;53.326;6.472;2023-12-28T05:20:09;13.18;;;3.28;;
52015;SDS011;38032;53.326;6.472;2023-12-28T05:22:35;8.73;;;3.03;;
52015;SDS011;38032;53.326;6.472;2023-12-28T05:25:01;8.80;;;2.72;;
52015;SDS011;38032;53.326;6.472;2023-12-28T05:27:26;12.38;;;3.25;;
52015;SDS011;38032;53.326;6.472;2023-12-28T05:29:52;10.23;;;2.80;;
52015;SDS011;38032;53.326;6.472;2023-12-28T05:32:18;11.52;;;3.25;;
52015;SDS011;38032;53.326;6.472;2023-12-28T05:34:44;11.10;;;2.65;;
52015;SDS011;38032;53.326;6.472;2023-12-28T05:37:10;10.90;;;3.40;;
52015;SDS011;38032;53.326;6.472;2023-12-28T05:39:36;13.85;;;3.42;;
52015;SDS011;38032;53.326;6.472;2023-12-28T05:42:02;13.02;;;3.13;;
52015;SDS011;38032;53.326;6.472;2023-12-28T05:44:28;9.65;;;2.92;;
52015;SDS011;38032;53.326;6.472;2023-12-28T05:46:54;9.57;;;3.08;;
52015;SDS011;38032;53.326;6.472;2023-12-28T05:49:19;12.40;;;2.65;;
52015;SDS011;38032;53.326;6.472;2023-12-28T05:51:45;14.55;;;3.00;;
52015;SDS011;38032;53.326;6.472;2023-12-28T05:54:11;11.13;;;2.90;;
52015;SDS011;38032;53.326;6.472;2023-12-28T05:56:37;15.55;;;2.88;;
52015;SDS011;38032;53.326;6.472;2023-12-28T05:59:03;12.55;;;3.42;;
52015;SDS011;38032;53.326;6.472;2023-12-28T06:01:28;15.98;;;3.33;;
52015;SDS011;38032;53.326;6.472;2023-12-28T06:03:54;10.23;;;2.72;;
52015;SDS011;38032;53.326;6.472;2023-12-28T06:06:20;14.98;;;3.22;;
52015;SDS011;38032;53.326;6.472;2023-12-28T06:08:46;16.27;;;3.22;;
52015;SDS011;38032;53.326;6.472;2023-12-28T06:11:12;15.57;;;3.20;;
52015;SDS011;38032;53.326;6.472;2023-12-28T06:13:38;10.50;;;3.35;;
52015;SDS011;38032;53.326;6.472;2023-12-28T06:16:04;9.23;;;2.75;;
52015;SDS011;38032;53.326;6.472;2023-12-28T06:18:30;14.55;;;3.15;;
52015;SDS011;38032;53.326;6.472;2023-12-28T06:20:56;15.60;;;3.95;;
52015;SDS011;38032;53.326;6.472;2023-12-28T06:23:22;12.15;;;2.92;;
52015;SDS011;38032;53.326;6.472;2023-12-28T06:25:47;19.48;;;4.05;;
52015;SDS011;38032;53.326;6.472;2023-12-28T06:28:13;18.08;;;3.30;;
52015;SDS011;38032;53.326;6.472;2023-12-28T06:30:39;13.80;;;2.95;;
52015;SDS011;38032;53.326;6.472;2023-12-28T06:33:05;17.45;;;3.38;;
52015;SDS011;38032;53.326;6.472;2023-12-28T06:35:31;13.32;;;3.17;;
52015;SDS011;38032;53.326;6.472;2023-12-28T06:37:57;13.75;;;3.90;;
52015;SDS011;38032;53.326;6.472;2023-12-28T06:40:23;10.55;;;3.03;;
52015;SDS011;38032;53.326;6.472;2023-12-28T06:42:48;17.80;;;3.53;;
52015;SDS011;38032;53.326;6.472;2023-12-28T06:45:15;11.75;;;2.88;;
52015;SDS011;38032;53.326;6.472;2023-12-28T06:47:40;14.38;;;3.40;;
52015;SDS011;38032;53.326;6.472;2023-12-28T06:50:06;16.50;;;4.18;;
52015;SDS011;38032;53.326;6.472;2023-12-28T06:52:32;14.30;;;3.83;;
52015;SDS011;38032;53.326;6.472;2023-12-28T06:54:58;17.90;;;3.28;;
52015;SDS011;38032;53.326;6.472;2023-12-28T06:57:24;18.38;;;4.50;;
52015;SDS011;38032;53.326;6.472;2023-12-28T06:59:50;21.08;;;4.22;;
52015;SDS011;38032;53.326;6.472;2023-12-28T07:02:16;18.10;;;3.40;;
52015;SDS011;38032;53.326;6.472;2023-12-28T07:04:42;12.27;;;2.90;;
52015;SDS011;38032;53.326;6.472;2023-12-28T07:07:08;17.38;;;3.60;;
52015;SDS011;38032;53.326;6.472;2023-12-28T07:09:34;16.65;;;3.63;;
52015;SDS011;38032;53.326;6.472;2023-12-28T07:12:01;17.73;;;3.90;;
52015;SDS011;38032;53.326;6.472;2023-12-28T07:14:27;14.02;;;2.95;;
52015;SDS011;38032;53.326;6.472;2023-12-28T07:16:53;15.90;;;3.17;;
52015;SDS011;38032;53.326;6.472;2023-12-28T07:19:19;16.25;;;3.10;;
52015;SDS011;38032;53.326;6.472;2023-12-28T07:21:44;16.88;;;3.20;;
52015;SDS011;38032;53.326;6.472;2023-12-28T07:24:10;12.55;;;3.20;;
52015;SDS011;38032;53.326;6.472;2023-12-28T07:26:36;16.08;;;3.35;;
52015;SDS011;38032;53.326;6.472;2023-12-28T07:29:02;17.88;;;3.60;;
52015;SDS011;38032;53.326;6.472;2023-12-28T07:31:29;13.80;;;3.78;;
52015;SDS011;38032;53.326;6.472;2023-12-28T07:33:56;14.23;;;3.33;;
52015;SDS011;38032;53.326;6.472;2023-12-28T07:36:22;13.45;;;3.30;;
52015;SDS011;38032;53.326;6.472;2023-12-28T07:38:48;14.93;;;3.28;;
52015;SDS011;38032;53.326;6.472;2023-12-28T07:41:14;19.10;;;3.75;;
52015;SDS011;38032;53.326;6.472;2023-12-28T07:43:40;18.80;;;3.75;;
52015;SDS011;38032;53.326;6.472;2023-12-28T07:46:06;18.98;;;4.10;;
52015;SDS011;38032;53.326;6.472;2023-12-28T07:48:32;16.05;;;3.80;;
52015;SDS011;38032;53.326;6.472;2023-12-28T07:50:58;21.90;;;3.78;;
52015;SDS011;38032;53.326;6.472;2023-12-28T07:53:23;20.20;;;4.05;;
52015;SDS011;38032;53.326;6.472;2023-12-28T07:55:49;16.77;;;4.13;;
52015;SDS011;38032;53.326;6.472;2023-12-28T07:58:15;15.80;;;3.58;;
52015;SDS011;38032;53.326;6.472;2023-12-28T08:00:41;14.77;;;3.63;;
52015;SDS011;38032;53.326;6.472;2023-12-28T08:03:07;17.83;;;3.90;;
52015;SDS011;38032;53.326;6.472;2023-12-28T08:05:33;21.08;;;4.30;;
52015;SDS011;38032;53.326;6.472;2023-12-28T08:07:59;25.73;;;4.53;;
52015;SDS011;38032;53.326;6.472;2023-12-28T08:10:24;20.00;;;4.38;;
52015;SDS011;38032;53.326;6.472;2023-12-28T08:12:50;18.45;;;4.22;;
52015;SDS011;38032;53.326;6.472;2023-12-28T08:15:16;19.92;;;4.22;;
52015;SDS011;38032;53.326;6.472;2023-12-28T08:17:42;21.98;;;4.05;;
52015;SDS011;38032;53.326;6.472;2023-12-28T08:20:08;18.80;;;4.65;;
52015;SDS011;38032;53.326;6.472;2023-12-28T08:22:34;20.33;;;5.05;;
52015;SDS011;38032;53.326;6.472;2023-12-28T08:24:59;20.27;;;4.47;;
52015;SDS011;38032;53.326;6.472;2023-12-28T08:27:25;19.35;;;4.30;;
52015;SDS011;38032;53.326;6.472;2023-12-28T08:29:51;23.02;;;4.70;;
52015;SDS011;38032;53.326;6.472;2023-12-28T08:32:17;20.75;;;4.57;;
52015;SDS011;38032;53.326;6.472;2023-12-28T08:34:43;23.92;;;4.90;;
52015;SDS011;38032;53.326;6.472;2023-12-28T08:37:09;21.48;;;4.20;;
52015;SDS011;38032;53.326;6.472;2023-12-28T08:39:35;22.83;;;5.07;;
52015;SDS011;38032;53.326;6.472;2023-12-28T08:42:01;22.85;;;4.68;;
52015;SDS011;38032;53.326;6.472;2023-12-28T08:44:27;19.30;;;4.20;;
52015;SDS011;38032;53.326;6.472;2023-12-28T08:46:53;19.77;;;5.05;;
52015;SDS011;38032;53.326;6.472;2023-12-28T08:49:19;20.92;;;4.70;;
52015;SDS011;38032;53.326;6.472;2023-12-28T08:51:45;16.98;;;3.92;;
52015;SDS011;38032;53.326;6.472;2023-12-28T08:54:10;22.52;;;4.43;;
52015;SDS011;38032;53.326;6.472;2023-12-28T08:56:36;28.48;;;6.13;;
52015;SDS011;38032;53.326;6.472;2023-12-28T08:59:02;17.80;;;5.43;;
52015;SDS011;38032;53.326;6.472;2023-12-28T09:01:29;28.02;;;5.35;;
52015;SDS011;38032;53.326;6.472;2023-12-28T09:03:55;20.48;;;4.75;;
52015;SDS011;38032;53.326;6.472;2023-12-28T09:06:21;23.92;;;4.82;;
52015;SDS011;38032;53.326;6.472;2023-12-28T09:08:48;24.63;;;5.90;;
52015;SDS011;38032;53.326;6.472;2023-12-28T09:11:15;20.05;;;4.63;;
52015;SDS011;38032;53.326;6.472;2023-12-28T09:13:42;18.95;;;3.92;;
52015;SDS011;38032;53.326;6.472;2023-12-28T09:16:08;23.50;;;4.80;;
52015;SDS011;38032;53.326;6.472;2023-12-28T09:18:36;21.45;;;4.20;;
52015;SDS011;38032;53.326;6.472;2023-12-28T09:21:03;26.55;;;5.28;;
52015;SDS011;38032;53.326;6.472;2023-12-28T09:23:30;24.33;;;5.03;;
52015;SDS011;38032;53.326;6.472;2023-12-28T09:25:57;24.80;;;5.25;;
52015;SDS011;38032;53.326;6.472;2023-12-28T09:28:24;18.85;;;4.75;;
52015;SDS011;38032;53.326;6.472;2023-12-28T09:30:50;23.88;;;5.03;;
52015;SDS011;38032;53.326;6.472;2023-12-28T09:33:16;24.10;;;4.40;;
52015;SDS011;38032;53.326;6.472;2023-12-28T09:35:42;18.38;;;4.82;;
52015;SDS011;38032;53.326;6.472;2023-12-28T09:38:08;18.70;;;3.88;;
52015;SDS011;38032;53.326;6.472;2023-12-28T09:40:35;20.80;;;4.75;;
52015;SDS011;38032;53.326;6.472;2023-12-28T09:43:07;17.02;;;4.10;;
52015;SDS011;38032;53.326;6.472;2023-12-28T09:45:49;19.55;;;5.35;;
52015;SDS011;38032;53.326;6.472;2023-12-28T09:48:15;16.48;;;4.22;;
52015;SDS011;38032;53.326;6.472;2023-12-28T09:50:43;22.92;;;4.25;;
52015;SDS011;38032;53.326;6.472;2023-12-28T09:53:09;21.52;;;4.05;;
52015;SDS011;38032;53.326;6.472;2023-12-28T09:55:37;24.23;;;4.00;;
52015;SDS011;38032;53.326;6.472;2023-12-28T09:58:03;19.58;;;4.40;;
52015;SDS011;38032;53.326;6.472;2023-12-28T10:00:31;16.42;;;4.43;;
52015;SDS011;38032;53.326;6.472;2023-12-28T10:02:57;20.77;;;4.45;;
52015;SDS011;38032;53.326;6.472;2023-12-28T10:05:23;20.23;;;4.63;;
52015;SDS011;38032;53.326;6.472;2023-12-28T10:07:49;19.35;;;4.35;;
52015;SDS011;38032;53.326;6.472;2023-12-28T10:10:15;20.02;;;4.80;;
52015;SDS011;38032;53.326;6.472;2023-12-28T10:12:42;20.73;;;4.40;;
52015;SDS011;38032;53.326;6.472;2023-12-28T10:15:08;15.95;;;3.85;;
52015;SDS011;38032;53.326;6.472;2023-12-28T10:17:35;21.42;;;4.75;;
52015;SDS011;38032;53.326;6.472;2023-12-28T10:20:01;18.10;;;3.75;;
52015;SDS011;38032;53.326;6.472;2023-12-28T10:22:29;23.73;;;4.70;;
52015;SDS011;38032;53.326;6.472;2023-12-28T10:24:57;14.40;;;3.70;;
52015;SDS011;38032;53.326;6.472;2023-12-28T10:27:24;21.92;;;4.15;;
52015;SDS011;38032;53.326;6.472;2023-12-28T10:29:53;20.77;;;4.40;;
52015;SDS011;38032;53.326;6.472;2023-12-28T10:32:20;17.58;;;3.70;;
52015;SDS011;38032;53.326;6.472;2023-12-28T10:34:48;20.83;;;4.53;;
52015;SDS011;38032;53.326;6.472;2023-12-28T10:37:14;19.65;;;4.30;;
52015;SDS011;38032;53.326;6.472;2023-12-28T10:39:44;16.98;;;4.38;;
52015;SDS011;38032;53.326;6.472;2023-12-28T10:42:13;19.38;;;3.90;;
52015;SDS011;38032;53.326;6.472;2023-12-28T10:44:42;18.27;;;3.92;;
52015;SDS011;38032;53.326;6.472;2023-12-28T10:47:15;21.92;;;4.03;;
52015;SDS011;38032;53.326;6.472;2023-12-28T10:49:43;20.35;;;4.38;;
52015;SDS011;38032;53.326;6.472;2023-12-28T10:52:13;19.25;;;5.22;;
52015;SDS011;38032;53.326;6.472;2023-12-28T10:54:50;13.80;;;3.45;;
52015;SDS011;38032;53.326;6.472;2023-12-28T10:57:27;22.13;;;4.00;;
52015;SDS011;38032;53.326;6.472;2023-12-28T11:02:38;14.55;;;3.42;;
52015;SDS011;38032;53.326;6.472;2023-12-28T11:05:07;15.07;;;4.30;;
52015;SDS011;38032;53.326;6.472;2023-12-28T11:07:33;16.85;;;4.22;;
52015;SDS011;38032;53.326;6.472;2023-12-28T11:10:02;19.50;;;4.13;;
52015;SDS011;38032;53.326;6.472;2023-12-28T11:12:31;17.65;;;3.80;;
52015;SDS011;38032;53.326;6.472;2023-12-28T11:14:58;18.65;;;3.97;;
52015;SDS011;38032;53.326;6.472;2023-12-28T11:17:25;13.98;;;4.18;;
52015;SDS011;38032;53.326;6.472;2023-12-28T11:19:52;15.55;;;4.13;;
52015;SDS011;38032;53.326;6.472;2023-12-28T11:22:19;20.92;;;4.20;;
52015;SDS011;38032;53.326;6.472;2023-12-28T11:24:47;23.90;;;4.60;;
52015;SDS011;38032;53.326;6.472;2023-12-28T11:27:13;15.20;;;4.13;;
52015;SDS011;38032;53.326;6.472;2023-12-28T11:29:41;16.88;;;4.18;;
52015;SDS011;38032;53.326;6.472;2023-12-28T11:32:08;13.50;;;3.47;;
52015;SDS011;38032;53.326;6.472;2023-12-28T11:34:34;16.50;;;3.80;;
52015;SDS011;38032;53.326;6.472;2023-12-28T11:37:07;17.67;;;3.78;;
52015;SDS011;38032;53.326;6.472;2023-12-28T11:39:37;21.42;;;4.22;;
52015;SDS011;38032;53.326;6.472;2023-12-28T11:42:05;17.42;;;3.95;;
52015;SDS011;38032;53.326;6.472;2023-12-28T11:44:42;20.17;;;4.20;;
52015;SDS011;38032;53.326;6.472;2023-12-28T11:47:11;14.50;;;4.53;;
52015;SDS011;38032;53.326;6.472;2023-12-28T11:49:37;24.20;;;4.70;;
52015;SDS011;38032;53.326;6.472;2023-12-28T11:52:05;15.75;;;4.43;;
52015;SDS011;38032;53.326;6.472;2023-12-28T11:54:32;20.70;;;3.95;;
52015;SDS011;38032;53.326;6.472;2023-12-28T11:56:58;16.45;;;4.10;;
52015;SDS011;38032;53.326;6.472;2023-12-28T11:59:24;14.15;;;4.43;;
52015;SDS011;38032;53.326;6.472;2023-12-28T12:01:51;19.05;;;4.45;;
52015;SDS011;38032;53.326;6.472;2023-12-28T12:04:18;17.08;;;3.78;;
52015;SDS011;38032;53.326;6.472;2023-12-28T12:06:45;17.17;;;4.07;;
52015;SDS011;38032;53.326;6.472;2023-12-28T12:09:12;22.48;;;4.20;;
52015;SDS011;38032;53.326;6.472;2023-12-28T12:11:39;19.15;;;4.32;;
52015;SDS011;38032;53.326;6.472;2023-12-28T12:14:09;17.55;;;4.07;;
52015;SDS011;38032;53.326;6.472;2023-12-28T12:16:35;22.48;;;4.07;;
52015;SDS011;38032;53.326;6.472;2023-12-28T12:19:04;20.08;;;4.40;;
52015;SDS011;38032;53.326;6.472;2023-12-28T12:21:32;17.00;;;3.83;;
52015;SDS011;38032;53.326;6.472;2023-12-28T12:23:59;18.30;;;4.40;;
52015;SDS011;38032;53.326;6.472;2023-12-28T12:26:26;16.08;;;3.95;;
52015;SDS011;38032;53.326;6.472;2023-12-28T12:28:54;20.58;;;3.72;;
52015;SDS011;38032;53.326;6.472;2023-12-28T12:31:20;21.35;;;4.90;;
52015;SDS011;38032;53.326;6.472;2023-12-28T12:33:47;20.00;;;3.92;;
52015;SDS011;38032;53.326;6.472;2023-12-28T12:36:13;23.60;;;5.93;;
52015;SDS011;38032;53.326;6.472;2023-12-28T12:38:39;19.48;;;4.18;;
52015;SDS011;38032;53.326;6.472;2023-12-28T12:41:05;18.42;;;4.63;;
52015;SDS011;38032;53.326;6.472;2023-12-28T12:43:32;22.42;;;4.63;;
52015;SDS011;38032;53.326;6.472;2023-12-28T12:45:59;16.50;;;5.28;;
52015;SDS011;38032;53.326;6.472;2023-12-28T12:48:25;27.63;;;4.75;;
52015;SDS011;38032;53.326;6.472;2023-12-28T12:50:51;20.65;;;4.10;;
52015;SDS011;38032;53.326;6.472;2023-12-28T12:53:17;21.20;;;4.18;;
52015;SDS011;38032;53.326;6.472;2023-12-28T12:55:43;25.65;;;5.60;;
52015;SDS011;38032;53.326;6.472;2023-12-28T12:58:11;25.30;;;4.85;;
52015;SDS011;38032;53.326;6.472;2023-12-28T13:00:38;25.05;;;4.88;;
52015;SDS011;38032;53.326;6.472;2023-12-28T13:03:08;23.08;;;5.30;;
52015;SDS011;38032;53.326;6.472;2023-12-28T13:05:36;18.00;;;4.65;;
52015;SDS011;38032;53.326;6.472;2023-12-28T13:08:03;16.48;;;4.20;;
52015;SDS011;38032;53.326;6.472;2023-12-28T13:10:30;18.42;;;4.57;;
52015;SDS011;38032;53.326;6.472;2023-12-28T13:12:56;20.42;;;4.82;;
52015;SDS011;38032;53.326;6.472;2023-12-28T13:15:22;21.67;;;4.60;;
52015;SDS011;38032;53.326;6.472;2023-12-28T13:17:48;20.33;;;4.75;;
52015;SDS011;38032;53.326;6.472;2023-12-28T13:20:14;18.88;;;4.55;;
52015;SDS011;38032;53.326;6.472;2023-12-28T13:22:40;18.30;;;4.63;;
52015;SDS011;38032;53.326;6.472;2023-12-28T13:25:07;19.15;;;4.75;;
52015;SDS011;38032;53.326;6.472;2023-12-28T13:27:32;19.40;;;4.45;;
52015;SDS011;38032;53.326;6.472;2023-12-28T13:29:58;16.30;;;3.90;;
52015;SDS011;38032;53.326;6.472;2023-12-28T13:32:24;15.07;;;3.80;;
52015;SDS011;38032;53.326;6.472;2023-12-28T13:34:50;15.88;;;4.10;;
52015;SDS011;38032;53.326;6.472;2023-12-28T13:37:16;20.13;;;3.97;;
52015;SDS011;38032;53.326;6.472;2023-12-28T13:39:43;13.95;;;4.13;;
52015;SDS011;38032;53.326;6.472;2023-12-28T13:42:09;21.20;;;4.75;;
52015;SDS011;38032;53.326;6.472;2023-12-28T13:44:35;15.98;;;3.80;;
52015;SDS011;38032;53.326;6.472;2023-12-28T13:47:01;17.45;;;3.67;;
52015;SDS011;38032;53.326;6.472;2023-12-28T13:49:28;14.77;;;3.90;;
52015;SDS011;38032;53.326;6.472;2023-12-28T13:51:54;18.88;;;4.30;;
52015;SDS011;38032;53.326;6.472;2023-12-28T13:54:20;17.83;;;4.05;;
52015;SDS011;38032;53.326;6.472;2023-12-28T13:56:46;18.77;;;4.03;;
52015;SDS011;38032;53.326;6.472;2023-12-28T13:59:13;16.90;;;4.10;;
52015;SDS011;38032;53.326;6.472;2023-12-28T14:01:39;18.65;;;3.80;;
52015;SDS011;38032;53.326;6.472;2023-12-28T14:04:05;15.98;;;4.10;;
52015;SDS011;38032;53.326;6.472;2023-12-28T14:06:31;18.83;;;3.67;;
52015;SDS011;38032;53.326;6.472;2023-12-28T14:08:57;16.67;;;4.00;;
52015;SDS011;38032;53.326;6.472;2023-12-28T14:11:24;22.27;;;4.18;;
52015;SDS011;38032;53.326;6.472;2023-12-28T14:13:50;16.08;;;3.58;;
52015;SDS011;38032;53.326;6.472;2023-12-28T14:16:16;20.35;;;4.30;;
52015;SDS011;38032;53.326;6.472;2023-12-28T14:18:41;14.13;;;3.65;;
52015;SDS011;38032;53.326;6.472;2023-12-28T14:21:08;18.52;;;3.92;;
52015;SDS011;38032;53.326;6.472;2023-12-28T14:23:34;15.02;;;3.45;;
52015;SDS011;38032;53.326;6.472;2023-12-28T14:26:02;16.60;;;4.65;;
52015;SDS011;38032;53.326;6.472;2023-12-28T14:28:36;13.98;;;3.88;;
52015;SDS011;38032;53.326;6.472;2023-12-28T14:31:02;16.65;;;4.45;;
52015;SDS011;38032;53.326;6.472;2023-12-28T14:33:28;17.58;;;4.15;;
52015;SDS011;38032;53.326;6.472;2023-12-28T14:35:54;15.85;;;3.60;;